createdAt,value
2022-08-22T00:00:13.927Z,20.35
2022-08-22T00:02:59.072Z,20.34
2022-08-22T00:03:11.561Z,23.21
2022-08-22T00:05:26.131Z,20.39
2022-08-22T00:10:37.474Z,20.41
2022-08-22T00:15:46.014Z,20.42
2022-08-22T00:20:59.823Z,20.45
2022-08-22T00:26:08.052Z,20.48
2022-08-22T00:31:24.810Z,20.50
2022-08-22T00:36:32.972Z,20.51
2022-08-22T00:41:51.809Z,20.53
2022-08-22T00:47:13.720Z,20.55
2022-08-22T00:52:33.154Z,20.56
2022-08-22T00:57:45.733Z,20.57
2022-08-22T01:03:12.106Z,20.58
2022-08-22T01:08:26.154Z,20.58
2022-08-22T01:13:39.384Z,20.57
2022-08-22T01:18:54.085Z,20.58
2022-08-22T01:24:12.547Z,20.57
2022-08-22T01:29:42.394Z,20.55
2022-08-22T01:35:11.517Z,20.53
2022-08-22T01:40:30.067Z,20.48
2022-08-22T01:45:49.058Z,20.46
2022-08-22T01:50:56.739Z,20.43
2022-08-22T01:56:08.038Z,20.38
2022-08-22T02:01:27.267Z,20.33
2022-08-22T02:06:40.499Z,20.29
2022-08-22T02:11:49.683Z,20.23
2022-08-22T02:16:58.556Z,20.17
2022-08-22T02:22:06.991Z,20.10
2022-08-22T02:27:18.860Z,20.04
2022-08-22T02:32:28.905Z,19.98
2022-08-22T02:37:37.503Z,19.91
2022-08-22T02:42:45.657Z,19.85
2022-08-22T02:47:57.552Z,19.80
2022-08-22T02:53:08.196Z,19.75
2022-08-22T02:58:18.137Z,19.70
2022-08-22T03:03:25.487Z,19.66
2022-08-22T03:08:32.382Z,19.62
2022-08-22T03:13:43.058Z,19.58
2022-08-22T03:18:55.766Z,19.53
2022-08-22T03:24:05.423Z,19.49
2022-08-22T03:29:13.932Z,19.44
2022-08-22T03:34:21.801Z,19.40
2022-08-22T03:39:40.985Z,19.39
2022-08-22T03:44:58.521Z,19.36
2022-08-22T03:50:26.626Z,19.33
2022-08-22T03:55:42.576Z,19.31
2022-08-22T04:01:07.060Z,19.29
2022-08-22T04:06:35.759Z,19.26
2022-08-22T04:11:58.070Z,19.25
2022-08-22T04:17:10.125Z,19.24
2022-08-22T04:22:33.747Z,19.23
2022-08-22T04:27:43.446Z,19.24
2022-08-22T04:32:53.389Z,19.23
2022-08-22T04:38:03.442Z,19.21
2022-08-22T04:43:12.310Z,19.20
2022-08-22T04:48:22.866Z,19.18
2022-08-22T04:53:42.448Z,19.16
2022-08-22T04:58:58.563Z,19.15
2022-08-22T05:04:05.444Z,19.14
2022-08-22T05:09:16.307Z,19.14
2022-08-22T05:14:26.487Z,19.14
2022-08-22T05:19:33.653Z,19.14
2022-08-22T05:24:40.647Z,19.15
2022-08-22T05:29:48.488Z,19.17
2022-08-22T05:34:56.159Z,19.17
2022-08-22T05:40:02.626Z,19.18
2022-08-22T05:45:12.364Z,19.20
2022-08-22T05:50:20.108Z,19.21
2022-08-22T05:55:27.950Z,19.21
2022-08-22T06:00:37.520Z,19.24
2022-08-22T06:05:45.264Z,19.25
2022-08-22T06:10:52.833Z,19.28
2022-08-22T06:16:06.020Z,19.29
2022-08-22T06:21:14.034Z,19.33
2022-08-22T06:26:21.372Z,19.37
2022-08-22T06:31:28.911Z,19.42
2022-08-22T06:36:36.275Z,19.46
2022-08-22T06:41:46.595Z,19.50
2022-08-22T06:46:53.871Z,19.55
2022-08-22T06:52:02.506Z,19.60
2022-08-22T06:57:13.153Z,19.64
2022-08-22T07:02:24.242Z,19.68
2022-08-22T07:07:30.267Z,19.72
2022-08-22T07:12:38.556Z,19.77
2022-08-22T07:17:51.395Z,19.81
2022-08-22T07:22:57.993Z,19.86
2022-08-22T07:28:14.553Z,19.92
2022-08-22T07:33:31.067Z,19.96
2022-08-22T07:38:43.233Z,20.04
2022-08-22T07:43:51.982Z,20.09
2022-08-22T07:49:09.473Z,20.13
2022-08-22T07:54:17.659Z,20.21
2022-08-22T07:59:23.629Z,20.26
2022-08-22T08:04:33.480Z,20.33
2022-08-22T08:09:43.988Z,20.42
2022-08-22T08:14:53.102Z,20.52
2022-08-22T08:19:59.298Z,20.64
2022-08-22T08:25:05.668Z,20.80
2022-08-22T08:30:16.971Z,20.94
2022-08-22T08:35:25.531Z,21.09
2022-08-22T08:40:50.634Z,21.26
2022-08-22T08:46:25.286Z,21.43
2022-08-22T08:51:44.763Z,21.60
2022-08-22T08:56:56.165Z,21.74
2022-08-22T09:02:13.802Z,21.88
2022-08-22T09:07:39.474Z,22.01
2022-08-22T09:18:40.389Z,22.27
2022-08-22T09:23:59.330Z,22.38
2022-08-22T09:29:16.167Z,22.48
2022-08-22T09:34:29.366Z,22.58
2022-08-22T09:39:37.328Z,22.68
2022-08-22T09:40:16.370Z,22.13
2022-08-22T09:44:50.481Z,22.79
2022-08-22T09:50:05.491Z,22.90
2022-08-22T09:55:19.492Z,23.01
2022-08-22T10:00:45.909Z,23.14
2022-08-22T10:05:56.802Z,23.25
2022-08-22T10:11:10.150Z,23.35
2022-08-22T10:16:22.529Z,23.42
2022-08-22T10:21:36.786Z,23.47
2022-08-22T10:26:46.638Z,23.52
2022-08-22T10:31:59.300Z,23.54
2022-08-22T10:37:10.817Z,23.55
2022-08-22T10:42:24.470Z,23.56
2022-08-22T10:47:36.938Z,23.56
2022-08-22T10:52:48.078Z,23.56
2022-08-22T10:58:05.494Z,23.55
2022-08-22T11:03:19.977Z,23.55
2022-08-22T11:08:43.795Z,23.59
2022-08-22T11:13:56.968Z,23.62
2022-08-22T11:19:14.883Z,23.68
2022-08-22T11:24:53.989Z,23.73
2022-08-22T11:30:06.296Z,23.80
2022-08-22T11:35:17.861Z,23.91
2022-08-22T11:40:37.754Z,23.97
2022-08-22T11:45:46.725Z,24.06
2022-08-22T11:50:57.673Z,24.16
2022-08-22T11:56:11.001Z,24.27
2022-08-22T12:01:18.747Z,24.36
2022-08-22T12:06:34.563Z,24.41
2022-08-22T12:11:44.748Z,24.48
2022-08-22T12:16:59.670Z,24.57
2022-08-22T12:22:15.582Z,24.63
2022-08-22T12:27:29.430Z,24.68
2022-08-22T12:32:54.561Z,24.75
2022-08-22T12:38:29.330Z,24.81
2022-08-22T12:43:39.914Z,24.86
2022-08-22T12:48:57.135Z,24.90
2022-08-22T12:54:16.176Z,24.97
2022-08-22T12:59:26.621Z,25.03
2022-08-22T13:04:35.843Z,25.10
2022-08-22T13:09:43.284Z,25.16
2022-08-22T13:14:51.768Z,25.20
2022-08-22T13:20:04.816Z,25.25
2022-08-22T13:25:25.534Z,25.29
2022-08-22T13:30:34.176Z,25.38
2022-08-22T13:35:51.900Z,25.48
2022-08-22T13:40:59.751Z,25.59
2022-08-22T13:46:11.085Z,25.70
2022-08-22T13:51:21.781Z,25.78
2022-08-22T13:56:30.266Z,25.85
2022-08-22T14:01:39.449Z,25.90
2022-08-22T14:06:49.284Z,25.90
2022-08-22T14:12:12.279Z,25.87
2022-08-22T14:17:20.857Z,25.83
2022-08-22T14:22:31.661Z,25.80
2022-08-22T14:27:39.593Z,25.78
2022-08-22T14:32:48.463Z,25.79
2022-08-22T14:37:57.509Z,25.83
2022-08-22T14:43:07.034Z,25.88
2022-08-22T14:48:30.353Z,25.91
2022-08-22T14:53:39.919Z,25.93
2022-08-22T14:58:51.233Z,25.93
2022-08-22T15:04:01.174Z,25.91
2022-08-22T15:09:08.898Z,25.88
2022-08-22T15:14:23.748Z,25.84
2022-08-22T15:19:30.538Z,25.78
2022-08-22T15:24:40.915Z,25.73
2022-08-22T15:29:51.599Z,25.68
2022-08-22T15:35:05.030Z,25.64
2022-08-22T15:40:14.406Z,25.61
2022-08-22T15:45:33.958Z,25.57
2022-08-22T15:50:42.715Z,25.56
2022-08-22T15:56:05.616Z,25.53
2022-08-22T16:01:19.914Z,25.44
2022-08-22T16:06:39.533Z,25.46
2022-08-22T16:11:55.584Z,25.43
2022-08-22T16:17:04.365Z,25.39
2022-08-22T16:22:16.713Z,25.38
2022-08-22T16:27:24.119Z,25.34
2022-08-22T16:32:29.996Z,25.31
2022-08-22T16:37:48.375Z,25.27
2022-08-22T16:43:11.342Z,25.22
2022-08-22T16:48:32.890Z,25.17
2022-08-22T16:53:55.554Z,25.13
2022-08-22T16:59:29.489Z,25.09
2022-08-22T17:04:50.546Z,25.05
2022-08-22T17:10:11.604Z,24.99
2022-08-22T17:15:23.556Z,24.95
2022-08-22T17:20:34.232Z,24.90
2022-08-22T17:25:49.195Z,24.87
2022-08-22T17:31:02.679Z,24.81
2022-08-22T17:36:26.266Z,24.76
2022-08-22T17:41:39.702Z,24.70
2022-08-22T17:46:51.144Z,24.66
2022-08-22T17:52:00.856Z,24.61
2022-08-22T17:57:10.140Z,24.55
2022-08-22T18:02:17.936Z,24.49
2022-08-22T18:07:33.580Z,24.43
2022-08-22T18:12:45.745Z,24.35
2022-08-22T18:17:54.706Z,24.29
2022-08-22T18:23:02.341Z,24.23
2022-08-22T18:28:11.474Z,24.16
2022-08-22T18:33:22.825Z,24.08
2022-08-22T18:38:31.304Z,23.99
2022-08-22T18:43:40.417Z,23.93
2022-08-22T18:49:13.721Z,23.84
2022-08-22T18:54:30.661Z,23.77
2022-08-22T18:59:47.034Z,23.69
2022-08-22T19:05:02.702Z,23.61
2022-08-22T19:10:18.957Z,23.54
2022-08-22T19:15:32.278Z,23.47
2022-08-22T19:20:59.179Z,23.39
2022-08-22T19:26:21.920Z,23.29
2022-08-22T19:31:44.088Z,23.20
2022-08-22T19:37:10.636Z,23.10
2022-08-22T19:42:40.746Z,23.01
2022-08-22T19:47:54.989Z,22.92
2022-08-22T19:53:05.374Z,22.84
2022-08-22T19:58:16.873Z,22.76
2022-08-22T20:03:32.960Z,22.69
2022-08-22T20:09:01.228Z,22.62
2022-08-22T20:14:25.036Z,22.55
2022-08-22T20:19:41.179Z,22.48
2022-08-22T20:24:49.608Z,22.42
2022-08-22T20:30:02.652Z,22.38
2022-08-22T20:35:09.200Z,22.33
2022-08-22T20:40:55.095Z,22.27
2022-08-22T20:45:54.042Z,22.22
2022-08-22T20:51:05.986Z,22.16
2022-08-22T20:56:12.402Z,22.11
2022-08-22T21:01:24.454Z,22.06
2022-08-22T21:06:35.307Z,22.00
2022-08-22T21:11:51.588Z,21.94
2022-08-22T21:16:57.125Z,21.90
2022-08-22T21:22:14.194Z,21.86
2022-08-22T21:27:24.747Z,21.81
2022-08-22T21:32:33.500Z,21.77
2022-08-22T21:37:41.463Z,21.74
2022-08-22T21:42:48.333Z,21.72
2022-08-22T21:47:54.462Z,21.67
2022-08-22T21:53:05.960Z,21.62
2022-08-22T21:58:35.848Z,21.59
2022-08-22T22:03:42.897Z,21.54
2022-08-22T22:08:49.268Z,21.49
2022-08-22T22:13:55.069Z,21.45
2022-08-22T22:19:01.124Z,21.39
2022-08-22T22:24:07.401Z,21.35
2022-08-22T22:29:13.591Z,21.30
2022-08-22T22:34:18.986Z,21.25
2022-08-22T22:39:24.977Z,21.19
2022-08-22T22:44:30.517Z,21.13
2022-08-22T22:49:36.237Z,21.11
2022-08-22T22:54:41.893Z,21.07
2022-08-22T22:59:48.185Z,21.02
2022-08-22T23:04:55.949Z,20.99
2022-08-22T23:10:02.295Z,20.95
2022-08-22T23:15:09.236Z,20.92
2022-08-22T23:20:15.206Z,20.89
2022-08-22T23:25:20.731Z,20.84
2022-08-22T23:30:26.376Z,20.76
2022-08-22T23:35:32.083Z,20.79
2022-08-22T23:40:37.794Z,20.78
2022-08-22T23:45:43.766Z,20.75
2022-08-22T23:50:50.010Z,20.72
2022-08-22T23:55:55.700Z,20.68
